Time;durP1;ratioP1;P1;durP2;ratioP2;P2;SDS_P1;SDS_P2;PMS_P1;PMS_P2;Temp;Humidity;BMP_temperature;BMP_pressure;BME280_temperature;BME280_humidity;BME280_pressure;Samples;Min_cycle;Max_cycle;Signal;HPM_P1;HPM_P2
2021/05/14 04:26:44;;;;;;;9.05;1.70;;;20.50;54.10;;;;;;4990392;28;20065;-54
2021/05/14 04:29:10;;;;;;;4.40;1.33;;;20.50;54.10;;;;;;4998154;28;20042;-55
2021/05/14 04:31:35;;;;;;;13.65;2.22;;;20.50;54.20;;;;;;4998081;28;20046;-55
2021/05/14 04:34:01;;;;;;;10.68;1.63;;;20.50;54.30;;;;;;4998193;28;20436;-53
2021/05/14 04:36:26;;;;;;;5.05;1.60;;;20.60;54.40;;;;;;4997829;28;20042;-55
2021/05/14 04:38:52;;;;;;;7.55;1.60;;;20.50;54.40;;;;;;4998064;28;20038;-54
2021/05/14 04:41:17;;;;;;;5.97;1.33;;;20.60;54.60;;;;;;4998105;28;20358;-53
2021/05/14 04:43:43;;;;;;;8.63;1.70;;;20.60;54.60;;;;;;4997806;28;20056;-54
2021/05/14 04:46:08;;;;;;;8.00;1.50;;;20.60;54.60;;;;;;4998303;28;20118;-54
2021/05/14 04:48:34;;;;;;;5.65;1.23;;;20.60;54.60;;;;;;4997666;28;20030;-59
2021/05/14 04:50:59;;;;;;;3.88;1.52;;;20.60;54.60;;;;;;4997173;28;20094;-53
2021/05/14 04:53:31;;;;;;;11.70;1.92;;;20.60;54.60;;;;;;4978761;28;20089;-54
2021/05/14 04:55:57;;;;;;;4.15;1.60;;;20.60;54.60;;;;;;4997428;28;20535;-52
2021/05/14 04:58:22;;;;;;;3.05;1.30;;;20.60;54.60;;;;;;4997774;28;20030;-54
2021/05/14 05:00:48;;;;;;;3.50;1.40;;;20.60;54.60;;;;;;4997817;28;20522;-58
2021/05/14 05:03:14;;;;;;;4.28;1.40;;;20.60;54.70;;;;;;4997299;28;20349;-53
2021/05/14 05:05:39;;;;;;;7.50;1.25;;;20.60;54.70;;;;;;4997882;28;20038;-52
2021/05/14 05:08:05;;;;;;;6.30;1.40;;;20.60;54.70;;;;;;4996973;28;20026;-56
2021/05/14 05:10:30;;;;;;;4.35;1.75;;;20.60;54.70;;;;;;4997355;28;20042;-59
2021/05/14 05:12:56;;;;;;;1.85;1.30;;;20.60;54.70;;;;;;4997390;28;20046;-54
2021/05/14 05:15:22;;;;;;;2.88;1.45;;;20.70;54.70;;;;;;4997015;28;20039;-58
2021/05/14 05:17:47;;;;;;;8.70;1.90;;;20.60;54.60;;;;;;4997011;28;20121;-56
2021/05/14 05:20:13;;;;;;;10.32;2.22;;;20.60;54.60;;;;;;4997170;28;20085;-54
2021/05/14 05:22:39;;;;;;;8.45;2.05;;;20.70;54.60;;;;;;4997035;28;20445;-57
2021/05/14 05:25:05;;;;;;;8.18;2.15;;;20.60;54.50;;;;;;4997058;28;20122;-60
2021/05/14 05:27:31;;;;;;;2.65;2.05;;;20.70;54.40;;;;;;4997284;28;20030;-59
2021/05/14 05:29:56;;;;;;;4.82;1.80;;;20.60;54.30;;;;;;4997092;28;20034;-58
2021/05/14 05:32:22;;;;;;;4.80;1.80;;;20.60;54.30;;;;;;4996362;28;20042;-59
2021/05/14 05:34:48;;;;;;;4.75;1.75;;;20.60;54.30;;;;;;4979511;28;20113;-57
2021/05/14 05:37:13;;;;;;;3.53;2.22;;;20.60;54.20;;;;;;4996827;28;20092;-57
2021/05/14 05:39:39;;;;;;;5.25;1.88;;;20.60;54.30;;;;;;4996829;28;20457;-59
2021/05/14 05:42:05;;;;;;;3.08;1.75;;;20.60;54.30;;;;;;4996718;28;20457;-59
2021/05/14 05:44:30;;;;;;;3.60;1.88;;;20.60;54.40;;;;;;4996964;28;20090;-53
2021/05/14 05:46:56;;;;;;;5.93;1.88;;;20.60;54.40;;;;;;4996458;28;20038;-55
2021/05/14 05:49:21;;;;;;;5.85;1.55;;;20.60;54.50;;;;;;4996994;28;20131;-55
2021/05/14 05:51:51;;;;;;;4.65;1.77;;;20.60;54.40;;;;;;4996705;28;20057;-55
2021/05/14 05:54:16;;;;;;;7.18;1.80;;;20.60;54.60;;;;;;4979653;28;20356;-59
2021/05/14 05:56:44;;;;;;;11.50;1.85;;;20.60;54.60;;;;;;4996233;28;20041;-53
2021/05/14 05:59:12;;;;;;;7.20;1.70;;;20.60;54.70;;;;;;4996654;28;20405;-54
2021/05/14 06:01:37;;;;;;;6.25;1.70;;;20.60;54.70;;;;;;4995645;28;20039;-55
2021/05/14 06:04:03;;;;;;;4.53;2.05;;;20.60;54.80;;;;;;4996262;28;20121;-55
2021/05/14 06:06:29;;;;;;;5.53;2.10;;;20.60;54.80;;;;;;4995626;28;20030;-59
2021/05/14 06:08:54;;;;;;;4.97;1.90;;;20.60;55.00;;;;;;4996150;28;20123;-60
2021/05/14 06:11:20;;;;;;;11.50;2.25;;;20.60;54.90;;;;;;4996117;28;20039;-52
2021/05/14 06:13:45;;;;;;;4.97;1.75;;;20.60;54.90;;;;;;4996109;28;20034;-56
2021/05/14 06:16:13;;;;;;;5.00;1.73;;;20.60;54.90;;;;;;4996011;28;20031;-57
2021/05/14 06:18:42;;;;;;;1.52;1.40;;;20.60;54.80;;;;;;4995860;28;20030;-56
2021/05/14 06:21:09;;;;;;;3.95;1.48;;;20.60;54.80;;;;;;4996132;28;20037;-59
2021/05/14 06:23:35;;;;;;;4.07;1.40;;;20.60;54.80;;;;;;4996076;28;20344;-57
2021/05/14 06:26:00;;;;;;;5.68;1.83;;;20.60;54.80;;;;;;4995710;28;20053;-54
2021/05/14 06:28:26;;;;;;;6.13;1.45;;;20.60;54.80;;;;;;4995818;28;20519;-54
2021/05/14 06:30:52;;;;;;;3.97;1.35;;;20.60;54.80;;;;;;4996349;28;20522;-54
2021/05/14 06:33:17;;;;;;;3.13;1.27;;;20.60;54.70;;;;;;4995874;28;20050;-57
2021/05/14 06:35:45;;;;;;;3.25;1.70;;;20.60;54.70;;;;;;4995845;28;20129;-57
2021/05/14 06:38:10;;;;;;;2.63;1.38;;;20.60;54.70;;;;;;4995965;28;20026;-59
2021/05/14 06:40:36;;;;;;;3.63;1.55;;;20.60;54.70;;;;;;4995580;28;20342;-57
2021/05/14 06:43:02;;;;;;;2.55;1.40;;;20.60;54.70;;;;;;4995734;28;20042;-58
2021/05/14 06:45:27;;;;;;;1.88;1.50;;;20.60;54.60;;;;;;4996086;28;20053;-54
2021/05/14 06:48:04;;;;;;;3.30;1.67;;;20.60;54.60;;;;;;4996083;28;20134;-57
2021/05/14 06:50:30;;;;;;;3.53;1.77;;;20.60;54.60;;;;;;4995584;28;20511;-58
2021/05/14 06:52:56;;;;;;;3.67;1.40;;;20.60;54.50;;;;;;4995464;28;20046;-57
2021/05/14 06:55:21;;;;;;;2.05;1.25;;;20.60;54.50;;;;;;4995920;28;20501;-57
2021/05/14 06:57:47;;;;;;;3.50;1.70;;;20.60;54.50;;;;;;4995657;28;20069;-53
2021/05/14 07:00:13;;;;;;;3.35;1.48;;;20.60;54.50;;;;;;4995664;28;20109;-55
2021/05/14 07:02:39;;;;;;;2.75;1.38;;;20.60;54.50;;;;;;4995743;28;20035;-56
2021/05/14 07:05:05;;;;;;;1.42;1.20;;;20.60;54.50;;;;;;4995151;28;20039;-59
2021/05/14 07:07:31;;;;;;;1.98;1.40;;;20.60;54.50;;;;;;4995678;28;20042;-57
2021/05/14 07:09:57;;;;;;;3.33;1.70;;;20.60;54.40;;;;;;4995090;28;20035;-54
2021/05/14 07:12:22;;;;;;;3.63;2.13;;;20.60;54.40;;;;;;4994986;28;20050;-54
2021/05/14 07:14:48;;;;;;;2.22;1.55;;;20.60;54.40;;;;;;4995549;28;20457;-52
2021/05/14 07:17:14;;;;;;;5.30;1.85;;;20.60;54.40;;;;;;4997606;28;20042;-55
2021/05/14 07:19:39;;;;;;;1.88;1.55;;;20.60;54.40;;;;;;4982361;28;20027;-56
2021/05/14 07:22:05;;;;;;;1.83;1.60;;;20.60;54.40;;;;;;4999222;28;20156;-54
2021/05/14 07:24:32;;;;;;;3.17;1.63;;;20.60;54.40;;;;;;4998966;28;20030;-54
2021/05/14 07:26:58;;;;;;;1.67;1.40;;;20.60;54.30;;;;;;4998792;28;20113;-56
2021/05/14 07:29:23;;;;;;;1.70;1.60;;;20.60;54.30;;;;;;4999186;28;20045;-57
2021/05/14 07:31:49;;;;;;;1.60;1.50;;;20.60;54.30;;;;;;4999467;28;20042;-52
2021/05/14 07:34:14;;;;;;;1.63;1.45;;;20.70;54.30;;;;;;4982340;28;20512;-56
2021/05/14 07:36:40;;;;;;;1.67;1.23;;;20.70;54.20;;;;;;4999079;28;20121;-57
2021/05/14 07:39:06;;;;;;;2.45;1.52;;;20.70;54.20;;;;;;4999327;28;20423;-52
2021/05/14 07:41:32;;;;;;;1.77;1.40;;;20.60;54.20;;;;;;4998895;28;20077;-57
2021/05/14 07:43:57;;;;;;;2.10;1.35;;;20.70;54.20;;;;;;4999446;28;20038;-55
2021/05/14 07:46:23;;;;;;;3.30;1.40;;;20.70;54.10;;;;;;4982272;28;20463;-48
2021/05/14 07:48:48;;;;;;;2.28;1.52;;;20.70;54.10;;;;;;4999019;28;20125;-52
2021/05/14 07:51:14;;;;;;;3.45;1.40;;;20.70;54.10;;;;;;4998838;28;20038;-53
2021/05/14 07:53:40;;;;;;;1.88;1.40;;;20.70;54.10;;;;;;4998631;28;20441;-59
2021/05/14 07:56:05;;;;;;;1.63;1.52;;;20.70;54.10;;;;;;4998572;28;20041;-50
2021/05/14 07:58:31;;;;;;;2.30;1.90;;;20.70;54.00;;;;;;4999001;28;20046;-50
2021/05/14 08:00:57;;;;;;;1.73;1.45;;;20.70;54.00;;;;;;4998739;28;20108;-52
2021/05/14 08:03:22;;;;;;;1.40;1.30;;;20.80;54.00;;;;;;4998507;28;20097;-55
2021/05/14 08:05:49;;;;;;;1.55;1.45;;;20.70;53.90;;;;;;4998821;28;20035;-55
2021/05/14 08:08:18;;;;;;;1.88;1.55;;;20.70;53.90;;;;;;4998233;28;20034;-56
2021/05/14 08:10:43;;;;;;;2.92;1.80;;;20.70;53.90;;;;;;4998538;28;20026;-53
2021/05/14 08:13:09;;;;;;;1.20;1.15;;;20.80;53.90;;;;;;4998375;28;20053;-59
2021/05/14 08:15:35;;;;;;;1.30;1.20;;;20.80;53.90;;;;;;4998503;28;20412;-55
2021/05/14 08:18:00;;;;;;;1.70;1.38;;;20.80;53.90;;;;;;4998908;28;20507;-60
2021/05/14 08:20:26;;;;;;;1.40;1.30;;;20.80;53.80;;;;;;4998268;28;20353;-53
2021/05/14 08:22:52;;;;;;;2.20;1.15;;;20.80;53.80;;;;;;4998115;28;20462;-56
2021/05/14 08:25:18;;;;;;;2.60;1.63;;;20.80;53.80;;;;;;4998436;28;20054;-52
2021/05/14 08:27:44;;;;;;;1.65;1.30;;;20.80;53.80;;;;;;4997965;28;20039;-59
2021/05/14 08:30:11;;;;;;;1.77;1.45;;;20.80;53.70;;;;;;4998159;28;20034;-57
2021/05/14 08:32:37;;;;;;;1.45;1.35;;;20.80;54.40;;;;;;4998261;28;20054;-56
2021/05/14 08:35:07;;;;;;;2.60;1.38;;;20.90;53.80;;;;;;4998385;28;20042;-56
2021/05/14 08:37:32;;;;;;;1.40;1.23;;;20.80;54.40;;;;;;4997860;28;20033;-56
2021/05/14 08:39:58;;;;;;;2.63;1.40;;;20.80;53.70;;;;;;4997927;28;20030;-58
2021/05/14 08:42:23;;;;;;;1.58;1.40;;;20.90;53.70;;;;;;4997569;28;20045;-54
2021/05/14 08:44:50;;;;;;;1.40;1.30;;;20.90;53.70;;;;;;4997885;28;20058;-51
2021/05/14 08:47:16;;;;;;;1.70;1.48;;;20.90;53.60;;;;;;4997796;28;20041;-54
2021/05/14 08:49:45;;;;;;;2.08;1.48;;;20.80;53.60;;;;;;4997965;28;20030;-54
2021/05/14 08:52:12;;;;;;;1.30;1.20;;;20.90;53.60;;;;;;4997543;28;20042;-55
2021/05/14 08:54:42;;;;;;;1.77;1.30;;;20.90;53.60;;;;;;4997526;28;20040;-55
2021/05/14 08:57:09;;;;;;;1.15;1.10;;;20.90;54.20;;;;;;4997716;28;20022;-55
2021/05/14 08:59:35;;;;;;;1.30;1.20;;;20.90;53.50;;;;;;4997331;28;20368;-53
2021/05/14 09:02:01;;;;;;;1.40;1.30;;;20.90;53.50;;;;;;4997790;28;20038;-53
2021/05/14 09:04:31;;;;;;;2.35;1.40;;;20.90;53.50;;;;;;4997812;28;20034;-56
2021/05/14 09:06:56;;;;;;;2.38;1.67;;;20.90;53.50;;;;;;4997785;28;20042;-55
2021/05/14 09:09:22;;;;;;;3.53;1.70;;;20.90;53.40;;;;;;4997871;28;20356;-56
2021/05/14 09:11:51;;;;;;;1.40;1.27;;;20.90;53.50;;;;;;4997230;28;20376;-60
2021/05/14 09:14:39;;;;;;;1.48;1.33;;;20.90;53.40;;;;;;4997545;28;20034;-54
2021/05/14 09:17:10;;;;;;;1.38;1.20;;;20.90;54.10;;;;;;4996935;28;20042;-55
2021/05/14 09:19:38;;;;;;;1.55;1.45;;;20.90;53.40;;;;;;4997236;28;20154;-61
2021/05/14 09:22:15;;;;;;;1.40;1.30;;;21.00;53.40;;;;;;4980179;28;20030;-55
2021/05/14 09:24:43;;;;;;;2.05;1.38;;;21.00;53.40;;;;;;4997064;28;20037;-53
2021/05/14 09:27:17;;;;;;;1.67;1.58;;;21.00;53.40;;;;;;4997542;28;20058;-58
2021/05/14 09:29:43;;;;;;;2.08;1.73;;;21.00;53.30;;;;;;4979783;28;20361;-55
2021/05/14 09:32:41;;;;;;;1.00;1.00;;;21.00;53.30;;;;;;4997358;28;20038;-58
2021/05/14 09:35:08;;;;;;;1.10;1.10;;;21.00;53.20;;;;;;4989288;28;20097;-54
2021/05/14 09:37:51;;;;;;;3.55;1.58;;;21.00;53.20;;;;;;4996692;28;20445;-54
2021/05/14 09:40:23;;;;;;;1.65;1.25;;;21.10;53.90;;;;;;4996347;28;20042;-52
2021/05/14 09:42:57;;;;;;;1.67;1.08;;;21.10;53.30;;;;;;4997172;28;20066;-55
2021/05/14 09:45:25;;;;;;;1.95;1.73;;;21.10;53.30;;;;;;4996734;28;20030;-53
2021/05/14 09:47:57;;;;;;;1.30;1.20;;;21.10;53.20;;;;;;4997020;28;20030;-54
2021/05/14 09:50:35;;;;;;;3.65;1.50;;;21.10;53.20;;;;;;4996701;28;20365;-59
2021/05/14 09:53:12;;;;;;;1.90;1.17;;;21.10;53.20;;;;;;4996930;28;20165;-51
2021/05/14 09:55:40;;;;;;;1.02;1.00;;;21.10;53.20;;;;;;4996608;28;20470;-52
2021/05/14 09:58:13;;;;;;;1.08;1.05;;;21.10;53.20;;;;;;4996645;28;20081;-56
2021/05/14 10:00:38;;;;;;;1.33;1.20;;;21.20;53.20;;;;;;4996922;28;20042;-58
2021/05/14 10:03:05;;;;;;;1.50;1.40;;;21.20;53.20;;;;;;4996373;28;20046;-50
2021/05/14 10:05:31;;;;;;;1.48;1.38;;;21.30;53.20;;;;;;4996332;28;20049;-53
2021/05/14 10:08:03;;;;;;;1.40;1.30;;;21.20;53.20;;;;;;4979693;28;20372;-50
2021/05/14 10:10:29;;;;;;;1.40;1.25;;;21.20;53.10;;;;;;4995927;28;20453;-51
2021/05/14 10:12:55;;;;;;;1.27;1.17;;;21.20;53.10;;;;;;4996133;28;20074;-55
2021/05/14 10:15:21;;;;;;;1.73;1.58;;;21.20;53.10;;;;;;4996161;28;20097;-52
2021/05/14 10:17:50;;;;;;;1.10;1.00;;;21.20;53.10;;;;;;4995647;28;20027;-49
2021/05/14 10:20:19;;;;;;;1.60;1.00;;;21.30;53.10;;;;;;4995992;28;20102;-54
2021/05/14 10:22:47;;;;;;;1.20;1.10;;;21.30;53.10;;;;;;4996294;28;20041;-53
2021/05/14 10:25:20;;;;;;;1.20;1.10;;;21.30;53.10;;;;;;4995734;28;20042;-56
2021/05/14 10:27:46;;;;;;;1.45;1.10;;;21.30;53.10;;;;;;4995869;28;20034;-51
2021/05/14 10:30:12;;;;;;;1.77;1.25;;;21.30;53.10;;;;;;4995431;28;20093;-51
2021/05/14 10:32:47;;;;;;;1.05;1.05;;;21.30;53.80;;;;;;4995722;28;20116;-53
2021/05/14 10:35:34;;;;;;;3.33;1.17;;;21.30;53.10;;;;;;4978562;28;20045;-55
2021/05/14 10:38:05;;;;;;;1.20;1.10;;;21.30;53.10;;;;;;4995925;28;20038;-56
2021/05/14 10:40:31;;;;;;;1.30;1.20;;;21.30;53.10;;;;;;4995647;28;20034;-51
2021/05/14 10:43:07;;;;;;;1.38;1.15;;;21.40;53.10;;;;;;4996161;28;20042;-56
2021/05/14 10:45:39;;;;;;;1.00;1.00;;;21.30;53.00;;;;;;4995598;28;20030;-50
2021/05/14 10:48:23;;;;;;;1.30;1.20;;;21.40;53.10;;;;;;4978207;28;20453;-55
2021/05/14 10:50:56;;;;;;;2.60;1.20;;;21.40;53.00;;;;;;4994888;28;20038;-51
2021/05/14 10:53:28;;;;;;;;;;;21.40;53.00;;;;;;4995808;28;20045;-53
2021/05/14 10:55:56;;;;;;;1.27;1.17;;;21.40;53.00;;;;;;4995441;28;19910;-54
2021/05/14 10:58:51;;;;;;;1.58;1.00;;;21.40;53.00;;;;;;4995590;28;20030;-56
2021/05/14 11:01:36;;;;;;;1.35;1.25;;;21.40;53.00;;;;;;4959557;28;20043;-56
2021/05/14 11:04:12;;;;;;;1.15;1.05;;;21.40;52.90;;;;;;4995525;28;20146;-56
2021/05/14 11:06:56;;;;;;;1.35;1.25;;;21.40;52.90;;;;;;4978320;28;20442;-53
2021/05/14 11:09:25;;;;;;;1.10;1.00;;;21.50;52.90;;;;;;4995304;28;20035;-54
2021/05/14 11:11:56;;;;;;;1.10;1.00;;;21.50;52.90;;;;;;4995187;28;20042;-52
2021/05/14 11:14:22;;;;;;;1.38;1.00;;;21.50;52.90;;;;;;4995332;28;20085;-56
2021/05/14 11:16:51;;;;;;;1.65;1.02;;;21.50;52.90;;;;;;4995740;28;20039;-54
2021/05/14 11:19:22;;;;;;;1.33;1.10;;;21.50;52.90;;;;;;4995478;28;20046;-58
2021/05/14 11:22:09;;;;;;;1.25;1.15;;;21.50;52.80;;;;;;4994964;28;20062;-53
2021/05/14 11:24:42;;;;;;;0.82;0.80;;;21.60;52.90;;;;;;4995353;28;20041;-54
2021/05/14 11:27:13;;;;;;;1.20;1.10;;;21.60;52.80;;;;;;4995460;28;20515;-57
2021/05/14 11:29:42;;;;;;;1.17;1.08;;;21.60;52.80;;;;;;4995150;28;20097;-51
2021/05/14 11:32:35;;;;;;;1.02;0.90;;;21.60;52.80;;;;;;4995175;28;20074;-59
2021/05/14 11:35:07;;;;;;;2.13;1.30;;;21.70;52.80;;;;;;4990557;28;20034;-53
2021/05/14 11:37:44;;;;;;;1.42;1.10;;;21.70;52.80;;;;;;4995559;28;20034;-58
2021/05/14 11:40:13;;;;;;;1.00;0.88;;;21.70;52.80;;;;;;4995277;28;20030;-50
2021/05/14 11:42:45;;;;;;;1.20;1.10;;;21.70;52.70;;;;;;4977995;28;20034;-54
2021/05/14 11:45:14;;;;;;;0.82;0.82;;;21.70;52.70;;;;;;4995302;28;20034;-58
2021/05/14 11:47:47;;;;;;;0.82;0.82;;;21.70;52.60;;;;;;4995034;28;20070;-52
2021/05/14 11:50:29;;;;;;;0.98;0.98;;;21.70;52.60;;;;;;4995099;28;20124;-52
2021/05/14 11:52:57;;;;;;;0.85;0.80;;;21.80;52.70;;;;;;4995165;28;20073;-52
2021/05/14 11:55:23;;;;;;;0.80;0.80;;;21.70;52.60;;;;;;4995091;28;20038;-57
2021/05/14 11:57:51;;;;;;;0.98;0.98;;;21.70;52.60;;;;;;4994831;28;20365;-53
2021/05/14 12:00:31;;;;;;;0.85;0.85;;;21.80;52.60;;;;;;4995292;28;20106;-57
2021/05/14 12:03:02;;;;;;;1.00;1.00;;;21.80;52.50;;;;;;4996213;28;20031;-55
2021/05/14 12:05:28;;;;;;;1.05;0.98;;;21.80;52.50;;;;;;4998578;28;20113;-56
2021/05/14 12:08:08;;;;;;;1.25;1.10;;;21.80;53.10;;;;;;4998716;28;20042;-58
2021/05/14 12:10:34;;;;;;;1.73;1.10;;;21.80;52.50;;;;;;4998509;28;20030;-53
2021/05/14 12:12:59;;;;;;;0.77;0.77;;;21.80;52.50;;;;;;4998689;28;20050;-58
2021/05/14 12:15:25;;;;;;;0.90;0.90;;;21.80;52.40;;;;;;4998382;28;20034;-55
2021/05/14 12:17:59;;;;;;;1.20;1.10;;;21.80;52.40;;;;;;4998420;28;20054;-56
2021/05/14 12:20:28;;;;;;;1.00;0.90;;;21.90;52.40;;;;;;4998149;28;20368;-56
2021/05/14 12:22:59;;;;;;;0.90;0.90;;;21.80;52.30;;;;;;4997755;28;20038;-56
2021/05/14 12:25:26;;;;;;;1.13;1.02;;;21.90;52.30;;;;;;4998432;28;20037;-52
2021/05/14 12:27:52;;;;;;;0.90;0.90;;;21.80;52.30;;;;;;4981036;28;20456;-54
2021/05/14 12:30:18;;;;;;;1.00;0.90;;;21.80;52.20;;;;;;4998238;28;20080;-52
2021/05/14 12:32:57;;;;;;;0.80;0.80;;;21.90;52.30;;;;;;4997757;28;20492;-56
2021/05/14 12:35:24;;;;;;;0.93;0.90;;;21.90;52.30;;;;;;4998189;28;20080;-56
2021/05/14 12:37:57;;;;;;;0.70;0.70;;;21.90;52.20;;;;;;4997995;28;20038;-54
2021/05/14 12:40:27;;;;;;;;;;;21.90;52.20;;;;;;4998529;28;20073;-57
2021/05/14 12:43:06;;;;;;;0.70;0.70;;;21.90;52.20;;;;;;4997522;28;19913;-55
2021/05/14 12:45:35;;;;;;;0.85;0.85;;;21.90;52.20;;;;;;4998127;28;20077;-60
2021/05/14 12:48:01;;;;;;;1.00;0.80;;;21.90;52.20;;;;;;4997874;28;20100;-55
2021/05/14 12:50:26;;;;;;;1.00;0.98;;;21.90;52.20;;;;;;4997347;28;20034;-55
2021/05/14 12:52:52;;;;;;;1.20;0.82;;;21.90;52.20;;;;;;4997702;28;20046;-52
2021/05/14 12:55:20;;;;;;;0.75;0.75;;;21.90;52.10;;;;;;4997811;28;20068;-59
2021/05/14 12:57:56;;;;;;;0.75;0.70;;;21.90;52.10;;;;;;4997793;28;20034;-58
2021/05/14 13:00:32;;;;;;;0.85;0.82;;;22.00;52.10;;;;;;4997482;28;20345;-53
2021/05/14 13:03:01;;;;;;;1.30;0.90;;;22.00;52.10;;;;;;4997199;28;20437;-51
2021/05/14 13:05:42;;;;;;;0.90;0.90;;;22.00;52.10;;;;;;4997471;28;20117;-53
2021/05/14 13:08:10;;;;;;;0.70;0.70;;;22.00;52.10;;;;;;4997411;28;20373;-54
2021/05/14 13:10:48;;;;;;;0.68;0.68;;;22.00;52.00;;;;;;4997109;28;20030;-58
2021/05/14 13:13:15;;;;;;;0.60;0.60;;;22.00;52.00;;;;;;4997155;28;20074;-53
2021/05/14 13:15:41;;;;;;;0.80;0.80;;;22.00;51.90;;;;;;4996482;28;20037;-52
2021/05/14 13:18:07;;;;;;;0.70;0.68;;;22.10;52.00;;;;;;4997277;28;20034;-57
2021/05/14 13:20:33;;;;;;;0.80;0.80;;;22.10;51.90;;;;;;4996926;28;20349;-54
2021/05/14 13:22:59;;;;;;;0.82;0.82;;;22.10;51.90;;;;;;4996840;28;20471;-58
2021/05/14 13:25:25;;;;;;;1.15;0.98;;;22.10;51.80;;;;;;4997263;28;20035;-55
2021/05/14 13:27:50;;;;;;;0.93;0.70;;;22.10;51.80;;;;;;4997000;28;20038;-52
2021/05/14 13:30:17;;;;;;;0.55;0.55;;;22.10;51.60;;;;;;4997531;28;20035;-58
2021/05/14 13:32:42;;;;;;;0.73;0.73;;;22.10;51.60;;;;;;4996749;28;20038;-54
2021/05/14 13:35:09;;;;;;;0.63;0.60;;;22.10;51.60;;;;;;4996615;28;20034;-58
2021/05/14 13:37:34;;;;;;;0.52;0.52;;;22.20;51.60;;;;;;4996884;28;20077;-51
2021/05/14 13:40:03;;;;;;;0.80;0.80;;;22.20;51.60;;;;;;4996948;28;20077;-56
2021/05/14 13:42:28;;;;;;;0.90;0.73;;;22.20;51.60;;;;;;4996761;28;20097;-56
2021/05/14 13:44:54;;;;;;;1.17;0.57;;;22.10;51.50;;;;;;4997085;28;20404;-53
2021/05/14 13:47:19;;;;;;;0.50;0.40;;;22.20;51.40;;;;;;4996464;28;20121;-51
2021/05/14 13:49:45;;;;;;;0.90;0.80;;;22.20;51.50;;;;;;4997115;28;20043;-58
2021/05/14 13:52:11;;;;;;;1.00;0.68;;;22.20;51.50;;;;;;4996815;28;20042;-54
2021/05/14 13:54:36;;;;;;;1.13;0.57;;;22.20;51.40;;;;;;4996057;28;20045;-55
2021/05/14 13:57:02;;;;;;;1.35;0.85;;;22.20;51.40;;;;;;4996469;28;20046;-51
2021/05/14 13:59:27;;;;;;;0.68;0.68;;;22.20;51.30;;;;;;4996509;28;20034;-58
2021/05/14 14:01:53;;;;;;;0.50;0.50;;;22.20;51.20;;;;;;4996161;28;20129;-55
2021/05/14 14:04:19;;;;;;;0.88;0.88;;;22.30;51.20;;;;;;4996245;28;20044;-58
2021/05/14 14:06:45;;;;;;;0.70;0.70;;;22.30;51.20;;;;;;4996571;28;20090;-57
2021/05/14 14:09:10;;;;;;;0.60;0.55;;;22.30;51.30;;;;;;4995830;28;20034;-51
2021/05/14 14:11:36;;;;;;;1.33;0.88;;;22.20;51.20;;;;;;4996052;28;20046;-55
2021/05/14 14:14:01;;;;;;;1.10;0.70;;;22.30;51.20;;;;;;4996280;28;20427;-53
2021/05/14 14:16:27;;;;;;;0.60;0.60;;;22.20;51.10;;;;;;4995959;28;20093;-50
2021/05/14 14:18:52;;;;;;;0.60;0.60;;;22.30;51.20;;;;;;4996217;28;20410;-52
2021/05/14 14:21:19;;;;;;;1.30;0.70;;;22.30;51.00;;;;;;4996007;28;20035;-60
2021/05/14 14:23:45;;;;;;;0.50;0.50;;;22.30;50.60;;;;;;4995842;28;20034;-56
2021/05/14 14:26:10;;;;;;;1.60;0.90;;;22.20;50.50;;;;;;4995817;28;20046;-54
2021/05/14 14:28:36;;;;;;;1.65;0.90;;;22.20;50.60;;;;;;4995626;28;20045;-51
2021/05/14 14:31:02;;;;;;;0.75;0.60;;;22.30;50.60;;;;;;4996264;28;20115;-55
2021/05/14 14:33:28;;;;;;;1.17;0.75;;;22.30;50.90;;;;;;4995684;28;20046;-51
2021/05/14 14:35:53;;;;;;;0.60;0.57;;;22.20;50.40;;;;;;4996038;28;20065;-51
2021/05/14 14:38:19;;;;;;;1.67;0.93;;;22.30;50.60;;;;;;4995969;28;20034;-55
2021/05/14 14:40:45;;;;;;;0.77;0.70;;;22.20;49.00;;;;;;4995402;28;20089;-53
2021/05/14 14:43:12;;;;;;;1.15;0.80;;;22.30;48.80;;;;;;4995852;28;20117;-53
2021/05/14 14:45:38;;;;;;;1.65;0.88;;;22.20;49.60;;;;;;4995817;28;20185;-54
2021/05/14 14:48:04;;;;;;;2.53;0.60;;;22.30;50.10;;;;;;4995367;28;20117;-60
2021/05/14 14:50:30;;;;;;;0.57;0.52;;;22.30;50.20;;;;;;4996008;28;20038;-59
2021/05/14 14:52:56;;;;;;;0.80;0.60;;;22.30;50.20;;;;;;4995398;28;20042;-55
2021/05/14 14:55:22;;;;;;;0.70;0.70;;;22.30;50.30;;;;;;4995498;28;20057;-56
2021/05/14 14:57:47;;;;;;;1.27;0.80;;;22.30;50.50;;;;;;4995320;28;20445;-55
2021/05/14 15:00:14;;;;;;;3.35;0.70;;;22.30;50.60;;;;;;4995622;28;20039;-54
2021/05/14 15:02:39;;;;;;;1.55;0.50;;;22.30;50.70;;;;;;4995715;28;20421;-58
2021/05/14 15:05:06;;;;;;;1.27;0.52;;;22.30;50.60;;;;;;4995553;28;20065;-54
2021/05/14 15:07:31;;;;;;;1.02;0.63;;;22.30;50.60;;;;;;4995483;28;20045;-58
2021/05/14 15:09:57;;;;;;;0.75;0.40;;;22.30;50.60;;;;;;4995018;28;20030;-57
2021/05/14 15:12:22;;;;;;;0.93;0.60;;;22.30;50.40;;;;;;4995758;28;20043;-58
2021/05/14 15:14:48;;;;;;;2.22;0.68;;;22.30;50.30;;;;;;4995362;28;20042;-59
2021/05/14 15:17:13;;;;;;;0.88;0.60;;;22.30;50.20;;;;;;4978418;28;20361;-56
2021/05/14 15:19:39;;;;;;;0.60;0.60;;;22.30;50.20;;;;;;4995063;28;20086;-58
2021/05/14 15:22:04;;;;;;;1.75;0.60;;;22.40;50.20;;;;;;4995426;28;20038;-56
2021/05/14 15:24:30;;;;;;;0.80;0.60;;;22.40;50.20;;;;;;4995136;28;20038;-50
2021/05/14 15:26:56;;;;;;;1.70;0.57;;;22.30;50.20;;;;;;4995936;28;20588;-56
2021/05/14 15:29:21;;;;;;;0.95;0.50;;;22.30;50.20;;;;;;4994830;28;20464;-51
2021/05/14 15:31:47;;;;;;;0.50;0.50;;;22.40;50.30;;;;;;4995893;28;20440;-52
2021/05/14 15:34:12;;;;;;;2.30;0.50;;;22.30;50.20;;;;;;4995424;28;20045;-54
2021/05/14 15:36:38;;;;;;;1.60;0.93;;;22.40;50.30;;;;;;4994993;28;20049;-54
2021/05/14 15:39:04;;;;;;;0.80;0.75;;;22.40;50.20;;;;;;4998179;28;20045;-51
2021/05/14 15:41:29;;;;;;;2.20;0.80;;;22.40;49.60;;;;;;4999234;28;20113;-54
2021/05/14 15:43:55;;;;;;;1.55;0.60;;;22.40;49.60;;;;;;4999139;28;20077;-54
2021/05/14 15:46:21;;;;;;;1.20;0.50;;;22.40;49.80;;;;;;4999245;28;20334;-56
2021/05/14 15:48:47;;;;;;;1.00;0.65;;;22.40;49.90;;;;;;4998588;28;20084;-59
2021/05/14 15:51:13;;;;;;;0.77;0.55;;;22.40;50.00;;;;;;4998575;28;20472;-55
2021/05/14 15:53:39;;;;;;;1.63;0.73;;;22.40;49.90;;;;;;4998349;28;20046;-55
2021/05/14 15:56:05;;;;;;;1.23;0.70;;;22.40;50.00;;;;;;4999022;28;20094;-58
2021/05/14 15:58:30;;;;;;;1.15;0.63;;;22.40;50.10;;;;;;4998870;28;20380;-55
2021/05/14 16:00:56;;;;;;;0.90;0.63;;;22.40;50.10;;;;;;4998714;28;20034;-55
2021/05/14 16:03:22;;;;;;;1.10;0.60;;;22.40;50.20;;;;;;4998602;28;20113;-58
2021/05/14 16:05:47;;;;;;;0.70;0.52;;;22.40;50.20;;;;;;4999050;28;20056;-58
2021/05/14 16:08:13;;;;;;;0.50;0.45;;;22.40;50.20;;;;;;4998715;28;20137;-58
2021/05/14 16:10:39;;;;;;;1.67;0.80;;;22.40;50.30;;;;;;4998546;28;20038;-57
2021/05/14 16:13:05;;;;;;;1.85;0.60;;;22.40;50.30;;;;;;4998411;28;20053;-57
2021/05/14 16:15:30;;;;;;;1.13;0.75;;;22.40;50.90;;;;;;4998714;28;20369;-57
2021/05/14 16:18:01;;;;;;;0.70;0.70;;;22.40;50.30;;;;;;4998441;28;20112;-57
2021/05/14 16:20:39;;;;;;;0.93;0.70;;;22.30;50.20;;;;;;4998576;28;20030;-57
2021/05/14 16:23:07;;;;;;;0.93;0.93;;;22.30;50.30;;;;;;4996955;28;20053;-59
2021/05/14 16:25:35;;;;;;;1.15;0.55;;;22.30;50.40;;;;;;4991738;28;20039;-56
2021/05/14 16:28:02;;;;;;;0.68;0.50;;;22.30;50.50;;;;;;4997853;28;20371;-56
2021/05/14 16:30:27;;;;;;;1.17;0.55;;;22.30;50.50;;;;;;4998479;28;20035;-59
2021/05/14 16:32:53;;;;;;;1.60;0.63;;;22.30;50.50;;;;;;4997821;28;20057;-58
2021/05/14 16:35:20;;;;;;;2.80;0.85;;;22.30;50.60;;;;;;4997638;28;20505;-56
2021/05/14 16:37:46;;;;;;;1.55;0.70;;;22.30;50.60;;;;;;4997676;28;20356;-54
2021/05/14 16:40:13;;;;;;;2.35;0.60;;;22.30;50.70;;;;;;4997579;28;20117;-58
2021/05/14 16:42:38;;;;;;;1.67;0.77;;;22.20;50.70;;;;;;4997998;28;20054;-59
2021/05/14 16:45:06;;;;;;;0.55;0.40;;;22.30;50.70;;;;;;4998182;28;20043;-58
2021/05/14 16:47:32;;;;;;;2.47;0.70;;;22.30;50.70;;;;;;4997494;28;20372;-56
2021/05/14 16:49:58;;;;;;;3.63;0.60;;;22.30;50.70;;;;;;4997593;28;20058;-59
2021/05/14 16:52:23;;;;;;;3.70;0.60;;;22.30;50.70;;;;;;4997371;28;20448;-60
2021/05/14 16:54:49;;;;;;;1.85;0.55;;;22.20;50.60;;;;;;4997580;28;20039;-59
2021/05/14 16:57:14;;;;;;;2.45;0.50;;;22.20;50.50;;;;;;4997747;28;20049;-58
2021/05/14 16:59:42;;;;;;;2.17;0.40;;;22.20;50.60;;;;;;4997673;28;20034;-58
2021/05/14 17:02:08;;;;;;;4.07;0.70;;;22.20;50.50;;;;;;4997099;28;20118;-60
2021/05/14 17:04:33;;;;;;;5.95;0.80;;;22.20;50.50;;;;;;4997296;28;20034;-58
2021/05/14 17:07:01;;;;;;;2.90;0.95;;;22.20;50.50;;;;;;4997425;28;20091;-58
2021/05/14 17:09:29;;;;;;;2.60;0.95;;;22.20;50.50;;;;;;4997457;28;20089;-57
2021/05/14 17:11:56;;;;;;;5.97;1.20;;;22.10;50.30;;;;;;4997083;28;20132;-58
2021/05/14 17:14:22;;;;;;;2.58;1.15;;;22.10;50.10;;;;;;4989123;28;20033;-53
2021/05/14 17:16:47;;;;;;;4.68;1.77;;;22.10;50.10;;;;;;4996931;28;20360;-57